WetterOnline ( http://www.wetteronline.de )

Wetter aktuell Cottbus

Aktuelles Wetter: Cottbus (70m)

6-stündlich | Neueste Meldungen
Ortszeit Temperatur Wetter
Di, 14.08. 14:00 24.6° C bewölkt
Di, 14.08. 8:00 19.5° C wolkig
Di, 14.08. 2:00 19.5° C bedeckt
Mo, 13.08. 20:00 25.2° C leichter Regen
Mo, 13.08. 14:00 31.9° C leicht bewölkt
Mo, 13.08. 8:00 19.2° C fast wolkenlos
Mo, 13.08. 2:00 13.8° C wolkig
So, 12.08. 20:00 23.6° C wolkig
Ortszeit Temperatur Wetter
Di, 14.08. 15:30 24.6° C bedeckt
Di, 14.08. 15:20 24.6° C bedeckt
Di, 14.08. 15:10 24.6° C bedeckt
Di, 14.08. 15:00 24.5° C bewölkt
Di, 14.08. 14:50 24.5° C bewölkt
Di, 14.08. 14:40 24.5° C bewölkt
Di, 14.08. 14:30 24.6° C bewölkt
Di, 14.08. 14:00 24.6° C bewölkt
Di, 14.08. 13:30 24.3° C bedeckt
Di, 14.08. 13:00 23.8° C wolkig
Di, 14.08. 12:30 22.9° C bewölkt
Ortszeit Relative Feuchte Sichtweite
Di, 14.08. 14:00 43% 45 km
Di, 14.08. 8:00 67% 55 km
Di, 14.08. 2:00 78% 60 km
Mo, 13.08. 20:00 44% 70 km
Mo, 13.08. 14:00 21% 35 km
Mo, 13.08. 8:00 49% 40 km
Mo, 13.08. 2:00 68% 40 km
So, 12.08. 20:00 34% 60 km
Ortszeit Relative Feuchte Sichtweite
Di, 14.08. 15:30 44% 55 km
Di, 14.08. 15:20 44% -
Di, 14.08. 15:10 44% -
Di, 14.08. 15:00 43% 55 km
Di, 14.08. 14:50 43% -
Di, 14.08. 14:40 44% -
Di, 14.08. 14:30 44% 45 km
Di, 14.08. 14:00 43% 45 km
Di, 14.08. 13:30 44% 50 km
Di, 14.08. 13:00 46% 45 km
Di, 14.08. 12:30 50% 55 km
Ortszeit Niederschlagsmenge Niederschlagsart
Di, 14.08. 14:00 0.0 l/m2 in 6 Std. -
Di, 14.08. 8:00 0.4 l/m2 in 12 Std. Regen
Di, 14.08. 2:00 0.3 l/m2 in 6 Std. Regen
Mo, 13.08. 20:00 0.1 l/m2 in 12 Std. Regen
Mo, 13.08. 14:00 0.0 l/m2 in 6 Std. -
Mo, 13.08. 8:00 0.0 l/m2 in 12 Std. -
Mo, 13.08. 2:00 0.0 l/m2 in 6 Std. -
So, 12.08. 20:00 0.0 l/m2 in 12 Std. -
Ortszeit Niederschlagsmenge Niederschlagsart
Di, 14.08. 15:30 0.0 l/m2 in 1 Std. -
Di, 14.08. 15:20 keine Meldung -
Di, 14.08. 15:10 keine Meldung -
Di, 14.08. 15:00 0.0 l/m2 in 1 Std. -
Di, 14.08. 14:50 keine Meldung -
Di, 14.08. 14:40 keine Meldung -
Di, 14.08. 14:30 0.0 l/m2 in 1 Std. -
Di, 14.08. 14:00 0.0 l/m2 in 1 Std. -
Di, 14.08. 13:30 0.0 l/m2 in 1 Std. -
Di, 14.08. 13:00 0.0 l/m2 in 1 Std. -
Di, 14.08. 12:30 0.0 l/m2 in 1 Std. -
Ortszeit Stärke Spitze Richtung
km/h Bft. km/h Grad Sektor
Di, 14.08. 14:00 14 3 36 260° W
Di, 14.08. 8:00 11 2 24 260° W
Di, 14.08. 2:00 7 2 22 210° SW
Mo, 13.08. 20:00 7 2 48 250° W
Mo, 13.08. 14:00 13 3 28 240° SW
Mo, 13.08. 8:00 4 1 7 100° O
Mo, 13.08. 2:00 4 1 7 70° O
So, 12.08. 20:00 0 0 32 - -
Ortszeit Stärke Spitze Richtung
km/h Bft. km/h Grad Sektor
Di, 14.08. 15:30 14 3 29 260° W
Di, 14.08. 15:20 14 3 - 260° W
Di, 14.08. 15:10 14 3 - 250° W
Di, 14.08. 15:00 11 2 40 260° W
Di, 14.08. 14:50 11 2 - 260° W
Di, 14.08. 14:40 14 3 - 250° W
Di, 14.08. 14:30 18 3 40 240° SW
Di, 14.08. 14:00 14 3 32 260° W
Di, 14.08. 13:30 14 3 29 260° W
Di, 14.08. 13:00 18 3 32 250° W
Di, 14.08. 12:30 14 3 32 250° W
Ortszeit Untergrenze Bedeckung Gattung
total tief tief mittel hoch
Di, 14.08. 14:00 2100 m 7/8 7/8 - - -
Di, 14.08. 8:00 6900 m 6/8 2/8 - - -
Di, 14.08. 2:00 3600 m 8/8 8/8 - - -
Mo, 13.08. 20:00 3000 m 8/8 7/8 - - -
Mo, 13.08. 14:00 12000 m 4/8 0/8 - - -
Mo, 13.08. 8:00 10500 m 2/8 0/8 - - -
Mo, 13.08. 2:00 7200 m 7/8 0/8 - - -
So, 12.08. 20:00 7200 m 8/8 0/8 - - -
Ortszeit Bedeckungsgrad in Achtel und Wolkenuntergrenze
Di, 14.08. 15:30 1(1500m) 8(2400m)
Di, 14.08. 15:20 1(1500m) 8(2400m)
Di, 14.08. 15:10 3(1500m) 8(2400m)
Di, 14.08. 15:00 4(1500m) 7(2400m)
Di, 14.08. 14:50 4(1500m) 7(2400m)
Di, 14.08. 14:40 3(1500m) 7(2400m)
Di, 14.08. 14:30 7(2400m) 7(2400m)
Di, 14.08. 14:00 7(2100m)
Di, 14.08. 13:30 2(1500m) 8(2100m)
Di, 14.08. 13:00 4(1470m) 6(1800m)
Di, 14.08. 12:30 4(1380m) 7(1500m) 7(1800m)
Ortszeit Luftdruck NN (hPa) Tendenz (hPa in 3 Std.)
Di, 14.08. 14:00 1011 + 0,3
Di, 14.08. 8:00 1010 + 1,3
Di, 14.08. 2:00 1008 + 0,1
Mo, 13.08. 20:00 1007 + 1,9
Mo, 13.08. 14:00 1007 - 1,5
Mo, 13.08. 8:00 1009 - 0,5
Mo, 13.08. 2:00 1011 - 1,2
So, 12.08. 20:00 1013 - 1,7
Ortszeit Luftdruck NN (hPa) Tendenz (hPa in 3 Std.)
Di, 14.08. 15:30 1011 0,0
Di, 14.08. 15:20 1011 keine Meldung
Di, 14.08. 15:10 1011 keine Meldung
Di, 14.08. 15:00 1011 + 0,1
Di, 14.08. 14:50 1011 keine Meldung
Di, 14.08. 14:40 1011 keine Meldung
Di, 14.08. 14:30 1011 + 0,4
Di, 14.08. 14:00 1011 + 0,3
Di, 14.08. 13:30 1011 + 0,4
Di, 14.08. 13:00 1011 + 0,3
Di, 14.08. 12:30 1011 + 0,4
Ortszeit Schneehöhe (cm)
Di, 14.08. 14:00 -
Di, 14.08. 8:00 -
Di, 14.08. 2:00 -
Mo, 13.08. 20:00 -
Mo, 13.08. 14:00 -
Mo, 13.08. 8:00 -
Mo, 13.08. 2:00 -
So, 12.08. 20:00 -
Ortszeit Schneehöhe (cm)
Di, 14.08. 15:30 -
Di, 14.08. 15:20 -
Di, 14.08. 15:10 -
Di, 14.08. 15:00 -
Di, 14.08. 14:50 -
Di, 14.08. 14:40 -
Di, 14.08. 14:30 -
Di, 14.08. 14:00 -
Di, 14.08. 13:30 -
Di, 14.08. 13:00 -
Di, 14.08. 12:30 -
Link zu dieser Seite / Seite empfehlen

Das Wetter in ...